AirNav   FBO Logistics
 
airports navaids fix Aviation Fuel airboss pilotshop
 1412 users online  

PAJV Jonesville Mine Airport
Sutton, Alaska, USA

GOING TO SUTTON?

Reserve a HOTEL

FAA INFORMATION EFFECTIVE 23 SEPTEMBER 2010

Location

FAA Identifier: JVM
Lat/Long: 61-43-53.0990N / 148-55-39.9380W
61-43.884983N / 148-55.665633W
61.7314164 / -148.9277606
(estimated)
Elevation: 870 ft. / 265 m (estimated)
Variation: 26E (1985)
From city: 2 miles NW of SUTTON, AK
Time zone: UTC -8 (UTC -9 during Standard Time)
Zip code: 99674

Airport Operations

Airport use: CLOSED INDEFINITELY
Activation date: 05/1957
Sectional chart: ANCHORAGE
Control tower: no
ARTCC: ANCHORAGE CENTER
FSS: KENAI FLIGHT SERVICE STATION [800-478-3576]
NOTAMs facility: JVM (NOTAM-D service available)
Attendance: UNATNDD
Wind indicator: no
Segmented circle: no

Airport Communications

CTAF: 122.9
WX ASOS at PAQ (9 nm SW): 134.75 (907-746-6675)
WX AWOS-3 at IYS (20 nm SW): 135.25 (907-373-3801)

Nearby radio navigation aids

VOR radial/distance  VOR name  Freq  Var
BGQr047/31.2BIG LAKE VORTAC112.5025E

Airport Services

Airframe service: NONE
Powerplant service: NONE
Bottled oxygen: NONE
Bulk oxygen: NONE

Runway Information

Runway 3/21

Dimensions: 1450 x 90 ft. / 442 x 27 m
Surface: gravel
RUNWAY 3  RUNWAY 21
Traffic pattern: leftleft
Markings: nonenone
Runway end identifier lights: nono
Obstructions: trees, 1000 ft. from runway, 12:1 slope to cleartrees, 600 ft. from runway, 14:1 slope to clear

Airport Ownership and Management from official FAA records

Ownership: Privately-owned
Owner: CANADIAN MINE & SMELTERING CO
SUTTON, AK
Manager: Phone 907-552-1040

Additional Remarks

WX CAMERA AVBL ON INTERNET AT HTTP://AKWEATHERCAMS.FAA.GOV
(ARPT STATUS) ARPT CLSD INDEFLY.

Instrument Procedures

There are no published instrument procedures at PAJV.

Some nearby airports with instrument procedures:

PAAQ - Palmer Municipal Airport (9 nm SW)
PAWS - Wasilla Airport (20 nm SW)
PAGQ - Big Lake Airport (28 nm SW)
PAUO - Willow Airport (32 nm W)
PAED - Elmendorf Air Force Base (38 nm SW)
 
Loc | Ops | Rwys | IFR | FBO | Links
Com | Nav | Svcs | Stats | Notes

ATP Flight Schools promo
 
Area around PAJV (Jonesville Mine Airport)
 
Road maps at: MapQuest MapPoint Yahoo! Maps Google Rand McNally
Satellite photo at: TerraServer Virtual Earth

 
Aerial photo
No photo
 
Sectional chart

 
Airport distance calculator
Flying to Jonesville Mine Airport? Find the distance to fly.

From to PAJV

Sunrise and sunset
Times for 04-Oct-2010
 Local
(UTC-8)
 Zulu
(UTC)
Morning civil twilight07:2815:28
Sunrise08:1216:12
Sunset19:1703:17
Evening civil twilight20:0104:01

Current date and time
Zulu (UTC)  04-Oct-2010 22:17:45
Local (UTC-8)  04-Oct-2010 14:17:45
 
METAR
PAJV 
2nm SE 
042150Z 00000KT 10SM SCT040 BKN080 OVC110 08/01 A2960 RMK 401281022 NOSPECI LAST
PAAQ 
9nm SW 
042153Z 12013KT 10SM SCT035 BKN070 OVC100 07/02 A2967 RMK AO2 SLP044 T00670017
PAWS 
15nm N 
042156Z AUTO 07010KT 10SM BKN065 BKN075 OVC085 08/M02 A2964 RMK AO1 PNO
TAF
PAAQ 
9nm SW 
041743Z 0418/0518 VRB06KT P6SM VCSH BKN080 FM051200 36012KT P6SM BKN120
NOTAMs
Click for the latest NOTAMs
NOTAMs are issued by the DoD/FAA and will open in a separate window not controlled by AirNav.

 

 
 

Where to Stay: Hotels, Motels, Resorts, B&Bs, Campgrounds

 In this space we feature lodging establishments that are convenient to the Jonesville Mine Airport. If your hotel/inn/B&B/resort is near the Jonesville Mine Airport, provides convenient transportation, or is otherwise attractive to pilots, flight crews, and airport users, consider listing it here.  
Feature A Hotel
 

Hotels in other cities near Jonesville Mine Airport

5 in Wasilla
 

Would you like to see your business listed on this page?

 If your business provides an interesting product or service to pilots, flight crews, aircraft, or users of the Jonesville Mine Airport, you should consider listing it here.  To start the listing process, click on the button below
 
Add a business
 

Other Pages about Jonesville Mine Airport

Update a link
 
Copyright © AirNav, LLC. All rights reserved. Privacy Policy  Contact